Logan Peak - 24 Hour Table
Date & TimeSolar
Radiation
(W/m²)
Wind
Speed
(mph)
Wind
Direction
(degrees)
Air
Temperature
(°F)
Relative
Humidity
(%)
Barometeric
Pressure
(inHg)
2017/02/25 08:00 12 0.0 0 1.1 90 29.60
2017/02/25 07:00 0 0.0 0 1.4 90 29.60
2017/02/25 06:00 0 0.0 0 1.4 91 29.60
2017/02/25 05:00 0 0.0 0 1.5 90 29.59
2017/02/25 04:00 0 0.0 0 1.8 91 29.60
2017/02/25 03:00 0 0.0 0 1.7 91 29.63
2017/02/25 02:00 0 0.0 0 1.6 91 29.61
2017/02/25 01:00 0 0.0 0 0.9 91 29.62
2017/02/25 00:00 0 0.0 0 -0.2 90 29.65
2017/02/24 23:00 0 0.0 0 -0.2 90 29.65
2017/02/24 22:00 0 0.0 0 0.3 90 29.66
2017/02/24 21:00 0 0.0 0 1.1 90 29.66
2017/02/24 20:00 0 0.0 0 2.2 91 29.66
2017/02/24 19:00 0 0.0 0 4.0 91 29.65
2017/02/24 18:00 25 0.0 0 7.4 92 29.65
2017/02/24 17:00 46 0.0 0 11.8 93 29.64
2017/02/24 16:00 97 0.0 0 15.7 96 29.64
2017/02/24 15:00 174 0.0 0 16.7 98 29.60
2017/02/24 14:00 151 0.0 0 16.1 97 29.62
2017/02/24 13:00 174 0.0 0 15.5 97 29.59
2017/02/24 12:00 180 0.0 0 14.5 97 29.61
2017/02/24 11:00 159 0.0 0 10.2 96 29.60
2017/02/24 10:00 94 0.0 0 5.7 94 29.59
2017/02/24 09:00 50 0.0 0 3.0 92 29.55